Time;durP1;ratioP1;P1;durP2;ratioP2;P2;SDS_P1;SDS_P2;PMS_P1;PMS_P2;Temp;Humidity;BMP_temperature;BMP_pressure;BME280_temperature;BME280_humidity;BME280_pressure;Samples;Min_cycle;Max_cycle;Signal;HPM_P1;HPM_P2
2022/08/23 00:01:51;;;;;;;2.00;1.25;;;23.60;67.90;;;;;;5026691;28;20018;-58
2022/08/23 00:04:22;;;;;;;2.72;1.50;;;23.60;67.90;;;;;;5026814;28;20029;-58
2022/08/23 00:06:48;;;;;;;2.92;1.20;;;23.60;68.50;;;;;;5026090;28;20069;-59
2022/08/23 00:09:14;;;;;;;2.03;1.35;;;23.60;67.90;;;;;;5025025;28;20594;-58
2022/08/23 00:11:49;;;;;;;2.55;1.58;;;23.60;67.90;;;;;;5026821;28;20021;-59
2022/08/23 00:14:20;;;;;;;1.90;1.23;;;23.60;67.90;;;;;;5025496;28;20124;-59
2022/08/23 00:16:46;;;;;;;3.00;1.50;;;23.60;67.90;;;;;;5025226;28;20036;-59
2022/08/23 00:19:13;;;;;;;4.68;1.55;;;23.60;67.90;;;;;;5026649;28;20041;-58
2022/08/23 00:21:39;;;;;;;2.50;1.40;;;23.60;67.90;;;;;;5024429;28;20021;-58
2022/08/23 00:24:06;;;;;;;2.42;1.30;;;23.60;67.80;;;;;;5025988;28;20382;-58
2022/08/23 00:26:54;;;;;;;1.83;1.20;;;23.60;67.80;;;;;;5020266;28;20035;-58
2022/08/23 00:29:21;;;;;;;3.00;1.50;;;23.60;67.90;;;;;;5022534;28;20036;-58
2022/08/23 00:31:47;;;;;;;3.60;1.40;;;23.60;67.90;;;;;;5026643;28;20033;-58
2022/08/23 00:34:13;;;;;;;3.13;1.38;;;23.60;67.90;;;;;;5023390;28;20124;-58
2022/08/23 00:36:40;;;;;;;3.55;1.50;;;23.60;67.80;;;;;;5024914;28;20072;-59
2022/08/23 00:39:05;;;;;;;3.53;1.40;;;23.60;67.80;;;;;;5024034;28;20513;-58
2022/08/23 00:41:32;;;;;;;3.08;1.42;;;23.60;67.80;;;;;;5023777;28;20026;-58
2022/08/23 00:49:31;;;;;;;3.90;1.38;;;23.60;67.90;;;;;;5019085;28;20040;-58
2022/08/23 00:52:06;;;;;;;2.45;1.40;;;23.60;67.80;;;;;;5025736;28;20045;-58
2022/08/23 00:54:32;;;;;;;1.63;1.20;;;23.60;67.80;;;;;;5017835;28;20132;-58
2022/08/23 00:57:00;;;;;;;1.75;1.25;;;23.60;67.80;;;;;;5006582;28;20041;-58
2022/08/23 00:59:25;;;;;;;2.58;1.20;;;23.60;67.80;;;;;;5020275;28;20108;-58
2022/08/23 01:01:51;;;;;;;2.55;1.25;;;23.60;67.80;;;;;;5023862;28;20104;-58
2022/08/23 01:04:17;;;;;;;2.58;1.40;;;23.50;67.80;;;;;;5024272;28;20030;-58
2022/08/23 01:07:03;;;;;;;1.85;1.13;;;23.60;67.80;;;;;;5024161;28;20025;-58
2022/08/23 01:09:29;;;;;;;1.85;1.20;;;23.50;67.80;;;;;;5022750;28;20410;-58
2022/08/23 01:12:04;;;;;;;2.92;1.30;;;23.50;67.70;;;;;;5019101;28;20026;-58
2022/08/23 01:14:45;;;;;;;3.15;1.27;;;23.50;67.70;;;;;;5015909;28;20484;-58
2022/08/23 01:17:20;;;;;;;1.52;1.15;;;23.50;67.80;;;;;;5020213;28;20032;-58
2022/08/23 01:19:57;;;;;;;1.48;1.08;;;23.50;67.70;;;;;;5021060;28;20474;-58
2022/08/23 01:22:49;;;;;;;2.90;1.40;;;23.50;67.80;;;;;;5004105;28;20056;-58
2022/08/23 01:25:18;;;;;;;3.20;1.27;;;23.50;67.80;;;;;;5018964;28;20034;-58
2022/08/23 01:27:45;;;;;;;2.78;1.23;;;23.50;67.70;;;;;;5018392;28;20756;-58
2022/08/23 01:30:12;;;;;;;2.78;1.38;;;23.50;67.70;;;;;;5024028;28;20468;-58
2022/08/23 01:32:42;;;;;;;2.17;1.30;;;23.50;67.70;;;;;;5024621;28;20053;-58
2022/08/23 01:35:08;;;;;;;1.45;1.27;;;23.50;67.80;;;;;;5004609;28;20029;-58
2022/08/23 01:37:33;;;;;;;1.95;1.30;;;23.50;67.70;;;;;;5023395;28;20029;-59
2022/08/23 01:39:59;;;;;;;3.10;1.30;;;23.50;67.80;;;;;;5022597;28;20087;-59
2022/08/23 01:42:25;;;;;;;2.67;1.20;;;23.50;67.90;;;;;;5023985;28;20473;-58
2022/08/23 01:44:50;;;;;;;1.90;1.20;;;23.50;67.70;;;;;;5020381;28;20025;-58
2022/08/23 01:47:16;;;;;;;1.95;1.10;;;23.50;67.70;;;;;;5025076;28;20049;-58
2022/08/23 01:49:42;;;;;;;1.50;1.23;;;23.50;67.70;;;;;;5022266;28;20101;-58
2022/08/23 01:52:07;;;;;;;2.05;1.10;;;23.50;67.80;;;;;;5024072;28;20045;-58
2022/08/23 01:54:33;;;;;;;1.65;1.10;;;23.50;67.80;;;;;;5024691;28;20073;-59
2022/08/23 01:56:59;;;;;;;2.03;0.90;;;23.50;67.90;;;;;;5023997;28;20029;-59
2022/08/23 01:59:24;;;;;;;3.10;1.40;;;23.50;67.90;;;;;;5023858;28;20125;-58
2022/08/23 02:01:51;;;;;;;1.98;1.20;;;23.50;67.90;;;;;;5019199;28;20452;-58
2022/08/23 02:04:17;;;;;;;1.50;1.00;;;23.50;67.80;;;;;;5023020;28;20045;-59
2022/08/23 02:06:42;;;;;;;2.72;1.27;;;23.50;67.90;;;;;;5022269;28;20575;-58
2022/08/23 02:09:08;;;;;;;1.88;1.23;;;23.50;67.80;;;;;;5025684;28;20052;-58
2022/08/23 02:11:36;;;;;;;2.45;1.40;;;23.50;67.90;;;;;;5024770;28;20105;-59
2022/08/23 02:14:04;;;;;;;3.15;1.27;;;23.50;67.90;;;;;;5021150;28;20616;-58
2022/08/23 02:16:35;;;;;;;2.90;1.30;;;23.50;67.80;;;;;;5022847;28;20030;-58
2022/08/23 02:19:02;;;;;;;1.90;1.10;;;23.50;67.80;;;;;;5024481;28;20555;-58
2022/08/23 02:21:31;;;;;;;2.13;1.33;;;23.50;67.80;;;;;;5018250;28;20029;-58
2022/08/23 02:24:23;;;;;;;1.65;1.02;;;23.50;67.90;;;;;;5023059;28;20033;-58
2022/08/23 02:26:51;;;;;;;2.35;1.10;;;23.50;67.80;;;;;;5020395;28;20588;-58
2022/08/23 02:29:19;;;;;;;2.10;1.20;;;23.40;67.70;;;;;;5027993;28;20036;-58
2022/08/23 02:31:44;;;;;;;1.55;1.10;;;23.40;67.80;;;;;;5026279;28;20041;-58
2022/08/23 02:34:14;;;;;;;2.90;1.20;;;23.40;67.90;;;;;;5029489;28;20382;-58
2022/08/23 02:36:40;;;;;;;2.42;1.20;;;23.40;67.90;;;;;;5027621;28;20040;-58
2022/08/23 02:39:06;;;;;;;2.22;1.20;;;23.40;67.90;;;;;;5026317;28;20465;-58
2022/08/23 02:41:32;;;;;;;2.15;1.15;;;23.40;67.90;;;;;;5030015;28;20025;-58
2022/08/23 02:43:58;;;;;;;2.15;1.17;;;23.40;67.80;;;;;;5024623;28;20065;-58
2022/08/23 02:46:24;;;;;;;2.20;1.27;;;23.40;67.90;;;;;;5024849;28;20065;-58
2022/08/23 02:48:49;;;;;;;3.10;1.23;;;23.40;67.80;;;;;;5027338;28;20025;-58
2022/08/23 02:51:15;;;;;;;2.17;1.00;;;23.50;67.90;;;;;;5026354;28;20025;-58
2022/08/23 02:53:41;;;;;;;1.30;1.00;;;23.40;67.90;;;;;;5024578;28;20038;-59
2022/08/23 02:56:06;;;;;;;1.98;1.15;;;23.40;67.90;;;;;;5027842;28;20029;-58
2022/08/23 02:58:32;;;;;;;1.20;1.00;;;23.40;67.80;;;;;;5026055;28;20030;-58
2022/08/23 03:00:58;;;;;;;1.52;1.00;;;23.40;68.00;;;;;;5026517;28;20418;-58
2022/08/23 03:03:24;;;;;;;1.98;1.10;;;23.40;67.90;;;;;;5027230;28;20401;-58
2022/08/23 03:05:50;;;;;;;2.22;1.20;;;23.40;67.90;;;;;;5025689;28;20041;-58
2022/08/23 03:08:16;;;;;;;1.67;1.10;;;23.40;67.80;;;;;;5028219;28;20032;-58
2022/08/23 03:10:45;;;;;;;2.38;1.33;;;23.40;67.80;;;;;;5023811;28;20037;-59
2022/08/23 03:13:11;;;;;;;1.35;1.08;;;23.40;67.70;;;;;;5027786;28;20041;-58
2022/08/23 03:15:38;;;;;;;3.10;1.30;;;23.40;67.90;;;;;;5026827;28;20520;-59
2022/08/23 03:18:03;;;;;;;2.38;1.10;;;23.40;67.90;;;;;;5026785;28;20031;-58
2022/08/23 03:20:29;;;;;;;1.90;1.30;;;23.40;67.90;;;;;;5027322;28;20101;-58
2022/08/23 03:22:55;;;;;;;3.63;1.00;;;23.40;67.80;;;;;;5027341;28;20057;-59
2022/08/23 03:25:21;;;;;;;1.90;1.35;;;23.40;67.70;;;;;;5028106;28;20456;-58
2022/08/23 03:27:46;;;;;;;1.95;1.05;;;23.40;67.80;;;;;;5026417;28;20485;-58
2022/08/23 03:30:12;;;;;;;2.08;1.20;;;23.40;67.70;;;;;;5027961;28;20087;-59
2022/08/23 03:32:38;;;;;;;2.15;1.05;;;23.40;67.80;;;;;;5026586;28;20545;-58
2022/08/23 03:35:04;;;;;;;2.25;1.00;;;23.30;67.80;;;;;;5025641;28;20033;-58
2022/08/23 03:37:30;;;;;;;2.05;1.20;;;23.40;67.80;;;;;;5026699;28;20053;-58
2022/08/23 03:39:56;;;;;;;1.25;0.90;;;23.40;67.90;;;;;;5021031;28;20057;-58
2022/08/23 03:42:21;;;;;;;1.60;1.10;;;23.40;67.90;;;;;;5024385;28;20040;-58
2022/08/23 03:44:47;;;;;;;1.63;1.10;;;23.30;67.90;;;;;;5025862;28;20121;-58
2022/08/23 03:47:12;;;;;;;2.05;1.00;;;23.30;67.80;;;;;;5023732;28;20100;-58
2022/08/23 03:49:38;;;;;;;2.35;1.10;;;23.40;67.80;;;;;;5025759;28;20052;-58
2022/08/23 03:52:04;;;;;;;1.95;1.20;;;23.30;67.80;;;;;;5025524;28;20510;-58
2022/08/23 03:54:30;;;;;;;1.10;0.93;;;23.30;67.80;;;;;;5024551;28;20755;-58
2022/08/23 03:57:01;;;;;;;2.63;1.00;;;23.40;67.80;;;;;;5026770;28;20071;-58
2022/08/23 03:59:27;;;;;;;2.42;1.25;;;23.30;67.80;;;;;;5025284;28;20072;-58
2022/08/23 04:01:53;;;;;;;1.10;1.00;;;23.30;68.00;;;;;;5026401;28;20434;-58
2022/08/23 04:04:19;;;;;;;1.42;0.80;;;23.30;67.90;;;;;;5026777;28;20416;-58
2022/08/23 04:06:45;;;;;;;1.92;1.10;;;23.30;67.70;;;;;;5022769;28;20025;-58
2022/08/23 04:09:12;;;;;;;1.35;0.85;;;23.30;67.80;;;;;;5020253;28;20061;-58
2022/08/23 04:11:38;;;;;;;1.10;0.95;;;23.30;67.80;;;;;;5025413;28;20056;-58
2022/08/23 04:14:05;;;;;;;1.85;1.10;;;23.30;67.90;;;;;;5025920;28;20041;-58
2022/08/23 04:16:36;;;;;;;2.08;1.20;;;23.40;67.80;;;;;;5026811;28;20124;-58
2022/08/23 04:19:03;;;;;;;1.92;1.20;;;23.30;67.90;;;;;;5025190;28;20065;-59
2022/08/23 04:21:29;;;;;;;1.23;1.08;;;23.30;67.80;;;;;;5026877;28;20025;-58
2022/08/23 04:23:54;;;;;;;2.13;1.05;;;23.30;67.80;;;;;;5021470;28;20029;-58
2022/08/23 04:26:20;;;;;;;2.70;1.10;;;23.30;67.90;;;;;;5023552;28;20057;-58
2022/08/23 04:28:46;;;;;;;1.88;1.25;;;23.30;68.00;;;;;;5026377;28;20033;-58
2022/08/23 04:31:11;;;;;;;2.20;1.08;;;23.30;68.10;;;;;;5025626;28;20033;-58
2022/08/23 04:33:37;;;;;;;2.03;1.08;;;23.30;68.10;;;;;;5025688;28;20029;-59
2022/08/23 04:36:03;;;;;;;1.65;1.10;;;23.30;67.80;;;;;;5024381;28;20409;-58
2022/08/23 04:38:29;;;;;;;1.33;1.05;;;23.30;68.40;;;;;;5021435;28;20045;-58
2022/08/23 04:43:39;;;;;;;1.65;1.02;;;23.30;67.80;;;;;;5026779;28;20036;-58
2022/08/23 04:46:06;;;;;;;1.75;1.10;;;23.30;67.90;;;;;;5026049;28;20032;-58
2022/08/23 04:48:32;;;;;;;4.10;1.00;;;23.30;68.10;;;;;;5026566;28;20549;-58
2022/08/23 04:50:58;;;;;;;2.25;1.10;;;23.30;68.00;;;;;;5027412;28;20021;-58
2022/08/23 04:53:24;;;;;;;1.33;1.00;;;23.30;68.20;;;;;;5028099;28;20045;-58
2022/08/23 04:55:51;;;;;;;2.58;1.00;;;23.30;68.00;;;;;;5026091;28;20524;-58
2022/08/23 04:58:17;;;;;;;2.15;1.13;;;23.30;68.00;;;;;;5027012;28;20028;-58
2022/08/23 05:00:43;;;;;;;1.85;1.08;;;23.30;68.10;;;;;;5028210;28;20061;-58
2022/08/23 05:03:09;;;;;;;2.90;1.20;;;23.30;68.20;;;;;;5035764;28;20472;-58
2022/08/23 05:05:34;;;;;;;2.10;1.00;;;23.30;68.20;;;;;;5027098;28;20106;-58
2022/08/23 05:08:00;;;;;;;1.48;1.13;;;23.30;68.20;;;;;;5026938;28;20107;-58
2022/08/23 05:10:26;;;;;;;1.58;0.95;;;23.30;68.10;;;;;;5028935;28;20032;-58
2022/08/23 05:12:51;;;;;;;2.38;1.20;;;23.30;68.00;;;;;;5026089;28;20108;-58
2022/08/23 05:15:17;;;;;;;2.55;1.02;;;23.30;68.10;;;;;;5029060;28;20041;-58
2022/08/23 05:17:43;;;;;;;2.13;1.00;;;23.30;68.10;;;;;;5025657;28;20029;-58
2022/08/23 05:20:09;;;;;;;2.63;1.10;;;23.30;68.00;;;;;;5023097;28;20509;-58
2022/08/23 05:22:35;;;;;;;2.75;0.90;;;23.30;68.10;;;;;;5027647;28;20036;-58
2022/08/23 05:25:01;;;;;;;2.08;1.20;;;23.30;68.10;;;;;;5030813;28;20041;-58
2022/08/23 05:27:27;;;;;;;1.75;1.10;;;23.30;68.20;;;;;;5026872;28;20099;-59
2022/08/23 05:29:53;;;;;;;2.75;0.95;;;23.30;68.20;;;;;;5031905;28;20025;-58
2022/08/23 05:32:19;;;;;;;3.38;1.35;;;23.30;68.00;;;;;;5028105;28;20101;-59
2022/08/23 05:34:45;;;;;;;1.65;1.00;;;23.30;68.10;;;;;;5025849;28;20104;-58
2022/08/23 05:37:12;;;;;;;2.97;1.10;;;23.30;68.10;;;;;;5025326;28;20029;-58
2022/08/23 05:39:37;;;;;;;1.63;1.10;;;23.30;68.10;;;;;;5027782;28;20029;-58
2022/08/23 05:42:07;;;;;;;1.92;1.08;;;23.30;68.30;;;;;;5026512;28;20078;-58
2022/08/23 05:44:33;;;;;;;1.55;0.90;;;23.30;68.10;;;;;;5026646;28;20079;-59
2022/08/23 05:46:58;;;;;;;1.92;1.00;;;23.30;68.10;;;;;;5026376;28;20546;-58
2022/08/23 05:49:24;;;;;;;2.88;1.20;;;23.30;68.00;;;;;;5026216;28;20036;-58
2022/08/23 05:51:49;;;;;;;1.98;0.85;;;23.30;68.20;;;;;;5025843;28;20072;-58
2022/08/23 05:54:15;;;;;;;1.17;0.80;;;23.30;68.20;;;;;;5026275;28;20041;-58
2022/08/23 05:56:41;;;;;;;1.75;1.00;;;23.20;68.10;;;;;;5026704;28;20032;-58
2022/08/23 05:59:09;;;;;;;2.20;1.00;;;23.20;68.20;;;;;;5026476;28;20137;-58
2022/08/23 06:01:35;;;;;;;2.05;1.00;;;23.20;68.10;;;;;;5027919;28;20034;-57
2022/08/23 06:04:02;;;;;;;1.48;1.00;;;23.30;68.20;;;;;;5023618;28;20171;-58
2022/08/23 06:06:28;;;;;;;0.88;0.80;;;23.20;68.10;;;;;;5022976;28;20119;-57
2022/08/23 06:08:54;;;;;;;1.30;0.88;;;23.20;68.00;;;;;;5021564;28;20508;-58
2022/08/23 06:11:21;;;;;;;1.35;0.88;;;23.20;68.10;;;;;;5023023;28;20029;-58
2022/08/23 06:13:55;;;;;;;2.92;1.10;;;23.30;68.10;;;;;;5023918;28;20089;-58
2022/08/23 06:16:24;;;;;;;1.10;0.97;;;23.30;68.00;;;;;;5022504;28;20138;-58
2022/08/23 06:18:50;;;;;;;1.38;1.10;;;23.20;68.30;;;;;;5021871;28;20033;-58
2022/08/23 06:21:15;;;;;;;2.67;1.00;;;23.20;68.00;;;;;;5019577;28;20038;-58
2022/08/23 06:23:41;;;;;;;0.75;0.75;;;23.20;68.30;;;;;;5024171;28;20076;-58
2022/08/23 06:26:10;;;;;;;2.05;1.15;;;23.20;68.00;;;;;;5023372;28;20478;-58
2022/08/23 06:28:36;;;;;;;1.58;1.00;;;23.20;68.10;;;;;;5021828;28;20125;-58
2022/08/23 06:31:02;;;;;;;3.22;0.95;;;23.20;68.00;;;;;;5024821;28;20112;-58
2022/08/23 06:33:29;;;;;;;2.17;1.23;;;23.20;68.00;;;;;;5022018;28;20045;-58
2022/08/23 06:36:03;;;;;;;1.80;0.80;;;23.20;68.00;;;;;;5023082;28;20444;-58
2022/08/23 06:38:29;;;;;;;1.15;0.93;;;23.20;68.00;;;;;;5023992;28;20026;-58
2022/08/23 06:41:05;;;;;;;1.77;0.98;;;23.20;68.10;;;;;;5017956;28;20044;-58
2022/08/23 06:43:31;;;;;;;1.58;0.80;;;23.20;68.00;;;;;;5024008;28;20022;-58
2022/08/23 06:46:19;;;;;;;2.60;1.05;;;23.20;68.10;;;;;;5024971;28;20447;-58
2022/08/23 06:48:45;;;;;;;1.95;0.95;;;23.20;68.10;;;;;;5021313;28;20124;-58
2022/08/23 06:51:12;;;;;;;1.70;1.00;;;23.20;68.20;;;;;;5025781;28;20100;-58
2022/08/23 06:53:38;;;;;;;2.05;1.00;;;23.20;68.10;;;;;;5022754;28;20409;-58
2022/08/23 06:56:03;;;;;;;1.02;0.93;;;23.20;68.20;;;;;;5026085;28;20025;-58
2022/08/23 06:58:29;;;;;;;2.47;0.85;;;23.20;68.20;;;;;;5023680;28;20064;-58
2022/08/23 07:00:55;;;;;;;2.00;0.90;;;23.20;68.20;;;;;;5023053;28;20135;-58
2022/08/23 07:03:22;;;;;;;2.70;1.00;;;23.20;68.00;;;;;;5024726;28;20033;-59
2022/08/23 07:05:47;;;;;;;1.63;1.00;;;23.20;68.20;;;;;;5024493;28;20060;-59
2022/08/23 07:08:13;;;;;;;0.98;0.80;;;23.20;68.20;;;;;;5025009;28;20493;-59
2022/08/23 07:10:39;;;;;;;2.00;1.05;;;23.20;68.20;;;;;;5023077;28;20030;-58
2022/08/23 07:13:04;;;;;;;1.52;1.00;;;23.20;68.20;;;;;;5026364;28;20139;-59
2022/08/23 07:15:30;;;;;;;2.72;0.90;;;23.20;68.30;;;;;;5029382;28;20048;-58
2022/08/23 07:17:56;;;;;;;1.30;0.80;;;23.20;68.40;;;;;;5028876;28;20424;-58
2022/08/23 07:20:21;;;;;;;1.05;0.85;;;23.20;68.10;;;;;;5029822;28;20022;-59
2022/08/23 07:22:48;;;;;;;1.33;1.00;;;23.20;68.20;;;;;;5029777;28;20086;-58
2022/08/23 07:25:13;;;;;;;1.40;0.98;;;23.20;68.20;;;;;;5029596;28;20691;-59
2022/08/23 07:27:39;;;;;;;1.88;1.10;;;23.20;68.30;;;;;;5027379;28;20021;-59
2022/08/23 07:30:05;;;;;;;1.15;0.70;;;23.20;68.20;;;;;;5029637;28;20061;-59
2022/08/23 07:32:31;;;;;;;2.38;0.98;;;23.20;68.30;;;;;;5027816;28;20072;-59
2022/08/23 07:34:57;;;;;;;0.95;0.80;;;23.20;68.00;;;;;;5027623;28;20038;-59
2022/08/23 07:37:23;;;;;;;1.48;1.00;;;23.20;67.90;;;;;;5025559;28;20021;-59
2022/08/23 07:39:49;;;;;;;1.83;0.90;;;23.20;67.90;;;;;;5028437;28;20041;-59
2022/08/23 07:42:14;;;;;;;1.42;1.00;;;23.20;67.90;;;;;;5029345;28;20377;-59
2022/08/23 07:44:40;;;;;;;3.95;1.30;;;23.20;67.90;;;;;;5027018;28;20032;-59
2022/08/23 07:47:07;;;;;;;1.88;1.08;;;23.20;68.20;;;;;;5029217;28;20393;-59
2022/08/23 07:49:33;;;;;;;3.70;0.95;;;23.30;68.10;;;;;;5028005;28;20026;-58
2022/08/23 07:51:58;;;;;;;1.20;0.90;;;23.20;67.70;;;;;;5028994;28;20053;-58
2022/08/23 07:54:24;;;;;;;1.33;1.00;;;23.20;68.10;;;;;;5030643;28;20048;-59
2022/08/23 07:56:50;;;;;;;2.58;1.00;;;23.30;68.20;;;;;;5028147;28;20064;-59
2022/08/23 07:59:17;;;;;;;4.80;1.10;;;23.30;68.40;;;;;;5030417;28;20390;-59
2022/08/23 08:01:43;;;;;;;2.20;0.95;;;23.30;68.30;;;;;;5027898;28;20037;-59
2022/08/23 08:04:10;;;;;;;2.63;1.17;;;23.30;68.20;;;;;;5026945;28;20029;-58
2022/08/23 08:06:45;;;;;;;2.03;0.90;;;23.30;68.30;;;;;;5027091;28;20026;-59
2022/08/23 08:09:11;;;;;;;2.95;1.00;;;23.30;68.00;;;;;;5025737;28;20506;-58
2022/08/23 08:11:39;;;;;;;3.13;1.20;;;23.30;68.10;;;;;;5024633;28;20429;-57
2022/08/23 08:14:06;;;;;;;2.10;1.10;;;23.30;67.90;;;;;;5026462;28;20033;-57
2022/08/23 08:16:35;;;;;;;1.73;1.02;;;23.30;67.90;;;;;;5024277;28;20022;-57
2022/08/23 08:19:03;;;;;;;3.30;0.98;;;23.30;67.90;;;;;;5023411;28;20025;-57
2022/08/23 08:21:29;;;;;;;1.10;0.88;;;23.30;68.00;;;;;;5028359;28;20559;-57
2022/08/23 08:23:56;;;;;;;1.92;1.10;;;23.30;68.00;;;;;;5029325;28;20109;-57
2022/08/23 08:26:21;;;;;;;1.75;1.05;;;23.30;68.00;;;;;;5028508;28;20405;-57
2022/08/23 08:28:47;;;;;;;1.40;0.90;;;23.40;68.00;;;;;;5032228;28;20028;-58
2022/08/23 08:31:13;;;;;;;4.60;0.90;;;23.40;68.00;;;;;;5031669;28;20033;-58
2022/08/23 08:33:39;;;;;;;3.13;1.13;;;23.40;68.10;;;;;;5029680;28;20037;-59
2022/08/23 08:36:06;;;;;;;2.60;1.10;;;23.50;67.90;;;;;;5030601;28;20430;-59
2022/08/23 08:38:32;;;;;;;2.78;1.10;;;23.50;67.90;;;;;;5028629;28;20670;-58
2022/08/23 08:41:07;;;;;;;4.93;1.10;;;23.50;67.90;;;;;;5027506;28;20040;-59
2022/08/23 08:43:45;;;;;;;2.17;1.00;;;23.60;67.70;;;;;;5037169;28;20037;-58
2022/08/23 08:46:23;;;;;;;2.47;1.10;;;23.60;68.10;;;;;;5028610;28;20532;-59
2022/08/23 08:48:52;;;;;;;6.68;1.10;;;23.60;68.00;;;;;;5027949;28;20179;-59
2022/08/23 08:51:42;;;;;;;7.25;1.42;;;23.60;68.40;;;;;;5026084;28;20032;-59
2022/08/23 08:54:09;;;;;;;3.90;1.30;;;23.60;68.90;;;;;;5026218;28;20033;-59
2022/08/23 08:56:37;;;;;;;5.75;1.13;;;23.70;69.10;;;;;;5022646;28;20026;-57
2022/08/23 08:59:12;;;;;;;3.78;0.93;;;23.70;69.00;;;;;;5021384;28;20029;-57
2022/08/23 09:01:37;;;;;;;4.75;1.38;;;23.70;68.80;;;;;;5031046;28;20408;-59
2022/08/23 09:04:04;;;;;;;4.63;1.10;;;23.70;68.70;;;;;;5023686;28;20030;-60
2022/08/23 09:06:53;;;;;;;2.63;1.05;;;23.70;68.30;;;;;;5038865;28;20021;-59
2022/08/23 09:09:50;;;;;;;4.20;1.20;;;23.70;68.30;;;;;;5031222;28;20390;-58
2022/08/23 09:12:31;;;;;;;3.22;0.90;;;23.70;68.20;;;;;;5021539;28;20061;-59
2022/08/23 09:15:19;;;;;;;4.43;1.20;;;23.70;68.30;;;;;;5025909;28;20600;-59
2022/08/23 09:17:56;;;;;;;3.20;0.93;;;23.70;68.50;;;;;;5026394;28;20021;-59
2022/08/23 09:20:23;;;;;;;2.55;0.93;;;23.70;68.50;;;;;;5031694;28;20040;-56
2022/08/23 09:22:52;;;;;;;3.95;1.00;;;23.70;68.50;;;;;;5025846;28;20021;-58
2022/08/23 09:25:18;;;;;;;2.85;1.10;;;23.70;68.30;;;;;;5011804;28;20532;-58
2022/08/23 09:27:44;;;;;;;2.25;0.93;;;23.70;68.50;;;;;;5025338;28;20026;-58
2022/08/23 09:30:12;;;;;;;3.75;1.20;;;23.70;68.30;;;;;;5026291;28;20022;-58
2022/08/23 09:32:40;;;;;;;2.95;1.13;;;23.70;68.30;;;;;;5025364;28;20579;-58
2022/08/23 09:35:17;;;;;;;1.98;1.00;;;23.70;68.60;;;;;;5023451;28;20039;-58
2022/08/23 09:37:51;;;;;;;1.50;0.95;;;23.70;68.50;;;;;;5027202;28;20029;-58
2022/08/23 09:40:18;;;;;;;5.25;1.33;;;23.70;68.30;;;;;;5022505;28;20030;-58
2022/08/23 09:42:46;;;;;;;8.02;1.50;;;23.80;68.50;;;;;;5026613;28;20036;-58
2022/08/23 09:45:32;;;;;;;6.35;1.60;;;23.80;68.60;;;;;;5026563;28;20551;-58
2022/08/23 09:47:58;;;;;;;9.65;1.90;;;23.80;69.70;;;;;;5024381;28;20067;-58
2022/08/23 09:50:25;;;;;;;5.78;1.65;;;23.80;69.40;;;;;;5026049;28;20029;-58
2022/08/23 09:53:01;;;;;;;8.07;1.60;;;23.90;69.20;;;;;;5025822;28;20056;-59
2022/08/23 09:55:39;;;;;;;7.60;2.00;;;23.90;69.10;;;;;;5026870;28;20049;-58
2022/08/23 09:58:27;;;;;;;9.20;2.25;;;23.90;69.20;;;;;;5024543;28;20678;-58
2022/08/23 10:01:21;;;;;;;10.80;1.90;;;23.90;69.10;;;;;;5025951;28;20179;-58
2022/08/23 10:04:04;;;;;;;9.55;2.00;;;23.90;69.00;;;;;;5041355;28;20026;-58
2022/08/23 10:06:30;;;;;;;7.35;1.98;;;24.00;68.80;;;;;;5024235;28;20101;-58
2022/08/23 10:09:00;;;;;;;15.43;2.15;;;23.90;68.70;;;;;;5024650;28;20048;-58
2022/08/23 10:11:28;;;;;;;7.30;1.80;;;23.90;68.80;;;;;;5025383;28;20390;-58
2022/08/23 10:13:54;;;;;;;8.85;1.80;;;24.00;68.70;;;;;;5025642;28;20705;-58
2022/08/23 10:16:20;;;;;;;9.05;2.15;;;23.90;68.70;;;;;;5025685;28;20032;-58
2022/08/23 10:19:10;;;;;;;7.32;1.80;;;23.90;68.60;;;;;;5023582;28;20406;-58
2022/08/23 10:21:53;;;;;;;6.13;1.70;;;24.00;68.70;;;;;;5024522;28;20061;-58
2022/08/23 10:24:29;;;;;;;7.00;1.48;;;24.00;68.70;;;;;;5025182;28;20082;-58
2022/08/23 10:29:35;;;;;;;6.97;1.70;;;24.00;68.70;;;;;;5023756;28;20563;-58
2022/08/23 10:30:13;;;;;;;7.13;1.70;;;24.00;68.50;;;;;;5022823;28;20091;-58
2022/08/23 10:32:58;;;;;;;6.10;1.70;;;24.00;68.40;;;;;;5023024;28;20411;-58
2022/08/23 10:36:01;;;;;;;8.17;2.10;;;24.00;68.50;;;;;;5024346;28;20029;-58
2022/08/23 10:38:45;;;;;;;8.18;1.98;;;24.00;68.40;;;;;;5022893;28;20506;-58
2022/08/23 10:41:26;;;;;;;5.30;1.67;;;24.00;68.50;;;;;;5024752;28;20155;-58
2022/08/23 10:44:20;;;;;;;5.05;1.48;;;24.00;68.50;;;;;;5024906;28;20025;-58
2022/08/23 10:47:27;;;;;;;6.63;1.60;;;24.00;68.50;;;;;;5026266;28;20025;-58
2022/08/23 10:49:53;;;;;;;7.95;1.63;;;24.00;68.60;;;;;;5026140;28;20021;-58
2022/08/23 10:52:35;;;;;;;5.95;1.50;;;24.00;68.50;;;;;;5026531;28;20065;-58
2022/08/23 10:55:16;;;;;;;4.93;1.58;;;24.00;68.60;;;;;;5033599;28;20059;-58
2022/08/23 10:57:43;;;;;;;5.65;1.50;;;24.00;68.50;;;;;;5037393;28;20121;-58
2022/08/23 11:00:34;;;;;;;7.38;1.60;;;24.00;68.60;;;;;;5030681;28;20033;-58
2022/08/23 11:03:21;;;;;;;8.98;1.63;;;24.00;68.60;;;;;;5026926;28;20124;-58
2022/08/23 11:06:22;;;;;;;5.15;1.50;;;24.10;68.60;;;;;;5031442;28;20505;-58
2022/08/23 11:08:47;;;;;;;6.72;1.42;;;24.10;68.50;;;;;;5029821;28;20029;-58
2022/08/23 11:12:10;;;;;;;4.93;1.35;;;24.10;68.60;;;;;;5027994;28;20034;-58
2022/08/23 11:14:44;;;;;;;6.20;1.60;;;24.20;68.60;;;;;;4988289;28;20152;-58
2022/08/23 11:17:12;;;;;;;6.67;1.60;;;24.40;68.40;;;;;;4971845;28;20093;-58
2022/08/23 11:19:53;;;;;;;7.25;1.60;;;24.40;69.10;;;;;;4968758;28;20049;-58
2022/08/23 11:22:21;;;;;;;6.80;1.77;;;24.50;68.00;;;;;;4987877;28;20038;-58
2022/08/23 11:25:09;;;;;;;8.00;1.70;;;24.60;67.80;;;;;;4985873;28;20605;-58
2022/08/23 11:27:41;;;;;;;6.22;1.65;;;24.70;67.50;;;;;;4958854;28;20050;-58
2022/08/23 11:30:31;;;;;;;3.88;1.48;;;24.70;67.50;;;;;;4961672;28;20046;-58
2022/08/23 11:33:09;;;;;;;4.93;1.55;;;24.70;67.50;;;;;;4956898;28;20416;-59
2022/08/23 11:35:41;;;;;;;6.22;1.70;;;24.70;67.50;;;;;;4959652;28;20462;-59
2022/08/23 11:38:07;;;;;;;6.15;1.77;;;24.80;67.60;;;;;;4923217;28;20195;-59
2022/08/23 11:40:50;;;;;;;10.07;2.08;;;24.80;67.70;;;;;;4960068;28;20543;-59
2022/08/23 11:43:40;;;;;;;6.22;1.80;;;24.80;67.90;;;;;;4958246;28;20034;-58
2022/08/23 11:46:13;;;;;;;6.22;1.90;;;24.80;68.10;;;;;;4987261;28;20121;-58
2022/08/23 11:48:42;;;;;;;8.68;2.10;;;24.90;67.60;;;;;;4978177;28;20494;-58
2022/08/23 11:51:22;;;;;;;10.20;2.50;;;25.00;67.50;;;;;;4979699;28;20120;-58
2022/08/23 11:54:04;;;;;;;7.93;2.10;;;25.00;67.40;;;;;;4980973;28;20530;-58
2022/08/23 11:56:51;;;;;;;6.68;1.75;;;25.00;67.70;;;;;;4972781;28;20483;-58
2022/08/23 11:59:48;;;;;;;7.70;2.22;;;25.00;67.40;;;;;;5001160;28;20042;-58
2022/08/23 12:02:35;;;;;;;8.35;2.10;;;25.00;67.40;;;;;;4991197;28;20092;-58
2022/08/23 12:05:03;;;;;;;5.95;1.90;;;25.00;67.10;;;;;;5013476;28;20042;-58
2022/08/23 12:07:44;;;;;;;4.75;1.70;;;25.00;67.20;;;;;;5027447;28;20109;-58
2022/08/23 12:10:10;;;;;;;7.47;1.80;;;25.00;67.20;;;;;;5024423;28;20118;-59
2022/08/23 12:12:37;;;;;;;6.18;1.88;;;25.00;67.10;;;;;;5027454;28;20128;-58
2022/08/23 12:15:07;;;;;;;4.93;1.77;;;25.00;66.80;;;;;;5027415;28;20103;-58
2022/08/23 12:17:33;;;;;;;5.72;1.77;;;25.00;66.90;;;;;;5021580;28;20036;-58
2022/08/23 12:20:08;;;;;;;7.38;2.00;;;25.00;67.00;;;;;;5027689;28;20756;-58
2022/08/23 12:22:53;;;;;;;;;;;25.00;67.00;;;;;;5026984;28;20030;-58
2022/08/23 12:25:20;;;;;;;6.72;1.77;;;25.10;67.00;;;;;;5027006;28;19909;-58
2022/08/23 12:27:54;;;;;;;4.80;1.67;;;25.00;66.80;;;;;;5025844;28;20021;-59
2022/08/23 12:30:32;;;;;;;6.85;1.75;;;25.10;66.70;;;;;;5023944;28;20405;-58
2022/08/23 12:33:04;;;;;;;8.15;1.70;;;25.10;66.60;;;;;;5026263;28;20044;-58
2022/08/23 12:35:44;;;;;;;7.60;1.80;;;25.10;66.80;;;;;;5033334;28;20469;-58
2022/08/23 12:38:41;;;;;;;4.35;1.52;;;25.10;66.60;;;;;;5027395;28;20026;-58
2022/08/23 12:41:28;;;;;;;5.25;1.38;;;25.10;66.60;;;;;;5025079;28;20515;-58
2022/08/23 12:44:07;;;;;;;7.03;1.67;;;25.20;66.70;;;;;;5022272;28;20040;-58
2022/08/23 12:46:41;;;;;;;5.43;1.50;;;25.20;66.60;;;;;;5026214;28;20498;-58
2022/08/23 12:49:08;;;;;;;5.03;1.60;;;25.20;66.60;;;;;;5026224;28;20030;-58
2022/08/23 12:51:40;;;;;;;6.57;1.60;;;25.10;66.40;;;;;;5023264;28;20046;-58
2022/08/23 12:54:14;;;;;;;4.03;1.40;;;25.20;66.50;;;;;;5026057;28;20041;-58
2022/08/23 12:56:40;;;;;;;6.97;1.67;;;25.10;66.40;;;;;;5026994;28;20040;-58
2022/08/23 12:59:06;;;;;;;5.15;1.45;;;25.20;66.50;;;;;;5032976;28;20033;-58
2022/08/23 13:01:36;;;;;;;5.05;1.60;;;25.10;66.40;;;;;;5008211;28;20022;-58
2022/08/23 13:04:12;;;;;;;4.72;1.60;;;25.10;66.30;;;;;;5020716;28;20033;-58
2022/08/23 13:06:53;;;;;;;4.38;1.30;;;25.20;66.00;;;;;;5025073;28;20112;-58
2022/08/23 13:09:25;;;;;;;6.35;1.65;;;25.10;66.00;;;;;;5027016;28;20443;-57
2022/08/23 13:11:51;;;;;;;5.30;1.50;;;25.10;66.10;;;;;;5025113;28;20022;-57
2022/08/23 13:14:35;;;;;;;5.07;1.50;;;25.00;66.20;;;;;;5024815;28;20052;-57